Time;durP1;ratioP1;P1;durP2;ratioP2;P2;SDS_P1;SDS_P2;PMS_P1;PMS_P2;Temp;Humidity;BMP_temperature;BMP_pressure;BME280_temperature;BME280_humidity;BME280_pressure;Samples;Min_cycle;Max_cycle;Signal;HPM_P1;HPM_P2
2022/03/19 00:01:55;;;;;;;8.82;1.23;;;5.90;99.90;;;;;;5036960;28;20120;-71
2022/03/19 00:04:20;;;;;;;8.82;1.40;;;5.90;99.90;;;;;;5035724;28;20041;-71
2022/03/19 00:06:47;;;;;;;3.53;1.30;;;5.90;99.90;;;;;;5036653;28;20052;-71
2022/03/19 00:09:13;;;;;;;6.38;1.40;;;5.80;99.90;;;;;;5036908;28;20063;-72
2022/03/19 00:11:40;;;;;;;4.93;1.42;;;6.00;99.90;;;;;;5036998;28;20064;-71
2022/03/19 00:14:06;;;;;;;4.20;0.90;;;5.80;99.90;;;;;;5035786;28;20064;-71
2022/03/19 00:16:32;;;;;;;6.93;1.35;;;5.80;99.90;;;;;;5036930;28;20087;-72
2022/03/19 00:18:58;;;;;;;9.18;1.10;;;6.10;99.90;;;;;;5035757;28;20072;-72
2022/03/19 00:21:24;;;;;;;7.07;1.00;;;5.80;99.90;;;;;;5036626;28;20049;-71
2022/03/19 00:23:50;;;;;;;3.03;0.98;;;5.90;99.90;;;;;;5019051;28;20046;-71
2022/03/19 00:26:17;;;;;;;8.57;1.30;;;5.80;99.90;;;;;;5036262;28;20045;-71
2022/03/19 00:28:43;;;;;;;8.38;1.00;;;6.00;99.90;;;;;;5035924;28;20053;-71
2022/03/19 00:31:09;;;;;;;8.38;1.58;;;5.90;99.90;;;;;;5036425;28;20041;-71
2022/03/19 00:33:35;;;;;;;6.80;1.67;;;5.80;99.90;;;;;;5036434;28;20053;-71
2022/03/19 00:36:01;;;;;;;8.88;1.83;;;5.80;99.90;;;;;;5036604;28;20409;-71
2022/03/19 00:38:27;;;;;;;7.68;1.65;;;6.40;99.90;;;;;;5035208;28;20053;-71
2022/03/19 00:40:53;;;;;;;6.07;1.02;;;5.80;99.90;;;;;;5035206;28;20541;-71
2022/03/19 00:43:22;;;;;;;5.20;1.17;;;5.80;99.90;;;;;;5036255;28;20053;-71
2022/03/19 00:45:48;;;;;;;7.72;1.13;;;5.80;99.90;;;;;;5035515;28;20045;-71
2022/03/19 00:48:15;;;;;;;8.23;1.73;;;5.70;99.90;;;;;;5035195;28;20053;-71
2022/03/19 00:50:41;;;;;;;7.20;1.90;;;5.70;99.90;;;;;;5036035;28;20052;-71
2022/03/19 00:53:07;;;;;;;7.88;1.23;;;5.50;99.90;;;;;;5034899;28;20038;-71
2022/03/19 00:55:32;;;;;;;5.70;0.90;;;5.70;99.90;;;;;;5036151;28;20502;-71
2022/03/19 00:57:58;;;;;;;7.40;1.55;;;5.70;99.90;;;;;;5034089;28;20060;-71
2022/03/19 01:00:26;;;;;;;6.78;1.45;;;5.80;99.90;;;;;;5035830;28;20058;-71
2022/03/19 01:02:54;;;;;;;6.65;1.17;;;5.70;99.90;;;;;;5035904;28;20056;-71
2022/03/19 01:05:22;;;;;;;6.45;1.38;;;5.70;99.90;;;;;;5036127;28;20530;-72
2022/03/19 01:07:49;;;;;;;7.32;1.27;;;5.80;99.90;;;;;;5035760;28;20049;-71
2022/03/19 01:10:23;;;;;;;8.18;1.20;;;5.70;99.90;;;;;;5034513;28;20094;-71
2022/03/19 01:12:50;;;;;;;7.25;1.40;;;5.70;99.90;;;;;;5033707;28;20103;-71
2022/03/19 01:15:16;;;;;;;7.20;1.27;;;5.70;99.90;;;;;;5035469;28;20052;-71
2022/03/19 01:17:43;;;;;;;9.43;1.42;;;5.80;99.90;;;;;;5035634;28;20045;-71
2022/03/19 01:20:10;;;;;;;7.25;1.08;;;5.60;99.90;;;;;;5034532;28;20404;-71
2022/03/19 01:22:38;;;;;;;8.00;1.50;;;5.70;99.90;;;;;;5035036;28;20049;-71
2022/03/19 01:25:05;;;;;;;5.38;1.30;;;5.50;99.90;;;;;;5035466;28;20045;-71
2022/03/19 01:27:35;;;;;;;4.45;1.10;;;5.70;99.90;;;;;;5033682;28;20049;-71
2022/03/19 01:30:02;;;;;;;7.85;1.05;;;5.40;99.90;;;;;;5035306;28;20041;-71
2022/03/19 01:32:28;;;;;;;6.93;1.38;;;5.60;99.90;;;;;;5017833;28;20478;-71
2022/03/19 01:34:54;;;;;;;6.95;1.50;;;5.90;99.90;;;;;;5034317;28;20107;-71
2022/03/19 01:37:21;;;;;;;6.78;1.00;;;5.80;99.90;;;;;;5034128;28;20046;-71
2022/03/19 01:39:47;;;;;;;4.47;1.20;;;6.30;99.90;;;;;;5034209;28;20072;-71
2022/03/19 01:42:25;;;;;;;8.25;1.42;;;5.30;99.90;;;;;;5034389;28;20048;-71
2022/03/19 01:44:52;;;;;;;6.85;1.30;;;5.40;99.90;;;;;;5035263;28;20053;-71
2022/03/19 01:47:18;;;;;;;8.90;1.55;;;5.50;99.90;;;;;;5035423;28;20124;-71
2022/03/19 01:49:43;;;;;;;5.88;1.58;;;5.40;99.90;;;;;;5017854;28;20145;-71
2022/03/19 01:52:09;;;;;;;8.27;1.60;;;5.40;99.90;;;;;;5033575;28;20064;-71
2022/03/19 01:54:37;;;;;;;9.70;1.38;;;5.30;99.90;;;;;;5033951;28;20187;-71
2022/03/19 01:57:05;;;;;;;5.50;1.35;;;5.40;99.90;;;;;;5032799;28;20065;-71
2022/03/19 01:59:34;;;;;;;5.75;1.73;;;5.30;99.90;;;;;;5034848;28;20049;-71
2022/03/19 02:02:08;;;;;;;7.60;1.73;;;5.20;99.90;;;;;;5034959;28;20126;-71
2022/03/19 02:04:38;;;;;;;5.88;1.38;;;5.30;99.90;;;;;;5033963;28;20215;-71
2022/03/19 02:07:09;;;;;;;4.80;1.25;;;5.20;99.90;;;;;;5034702;28;20049;-71
2022/03/19 02:09:36;;;;;;;8.80;2.22;;;5.20;99.90;;;;;;5034640;28;20045;-71
2022/03/19 02:12:03;;;;;;;7.90;1.60;;;5.60;99.90;;;;;;5034609;28;20068;-71
2022/03/19 02:14:32;;;;;;;9.63;1.48;;;5.10;99.90;;;;;;5034337;28;20045;-71
2022/03/19 02:17:00;;;;;;;7.35;1.55;;;5.50;99.90;;;;;;5017123;28;20402;-71
2022/03/19 02:19:25;;;;;;;4.07;1.42;;;5.10;99.90;;;;;;5034451;28;20417;-71
2022/03/19 02:21:51;;;;;;;4.40;1.50;;;5.10;99.90;;;;;;5034417;28;20083;-71
2022/03/19 02:27:02;;;;;;;5.80;1.45;;;5.00;99.90;;;;;;5032711;28;20080;-71
2022/03/19 02:29:28;;;;;;;7.22;1.23;;;5.00;99.90;;;;;;5033297;28;20057;-71
2022/03/19 02:31:57;;;;;;;5.05;1.50;;;5.00;99.90;;;;;;5016432;28;20049;-71
2022/03/19 02:34:22;;;;;;;7.68;1.95;;;5.00;99.90;;;;;;5033231;28;20390;-71
2022/03/19 02:36:49;;;;;;;7.45;1.80;;;5.00;99.90;;;;;;5034100;28;20041;-71
2022/03/19 02:39:28;;;;;;;9.40;2.28;;;5.60;99.90;;;;;;5033003;28;20067;-71
2022/03/19 02:41:56;;;;;;;7.32;1.63;;;5.00;99.90;;;;;;5034513;28;20046;-71
2022/03/19 02:44:21;;;;;;;7.85;1.85;;;5.00;99.90;;;;;;5033029;28;20482;-71
2022/03/19 02:46:50;;;;;;;6.30;1.95;;;5.00;99.90;;;;;;5033818;28;20095;-71
2022/03/19 02:49:17;;;;;;;10.15;2.00;;;5.00;99.90;;;;;;5032717;28;20453;-72
2022/03/19 02:51:45;;;;;;;9.00;2.20;;;5.00;99.90;;;;;;5032653;28;20072;-71
2022/03/19 02:54:18;;;;;;;9.32;2.75;;;5.00;99.90;;;;;;5033999;28;20494;-71
2022/03/19 02:56:45;;;;;;;6.85;1.98;;;4.90;99.90;;;;;;5031701;28;20506;-71
2022/03/19 02:59:20;;;;;;;6.47;1.92;;;5.20;99.90;;;;;;5033839;28;20049;-72
2022/03/19 03:01:53;;;;;;;7.32;2.60;;;5.00;99.90;;;;;;5032696;28;20053;-71
2022/03/19 03:04:20;;;;;;;7.35;2.00;;;5.30;99.90;;;;;;5032725;28;20401;-71
2022/03/19 03:06:49;;;;;;;8.90;2.10;;;5.00;99.90;;;;;;5033688;28;20103;-71
2022/03/19 03:09:18;;;;;;;7.85;2.05;;;5.00;99.90;;;;;;5032651;28;20146;-71
2022/03/19 03:11:44;;;;;;;10.88;2.20;;;5.30;99.90;;;;;;5016012;28;20100;-71
2022/03/19 03:14:10;;;;;;;8.15;2.47;;;5.00;99.90;;;;;;5033104;28;20049;-71
2022/03/19 03:16:37;;;;;;;13.38;2.85;;;5.00;99.90;;;;;;5032645;28;20037;-71
2022/03/19 03:19:05;;;;;;;10.88;2.40;;;4.80;99.90;;;;;;5033531;28;20045;-71
2022/03/19 03:21:32;;;;;;;7.47;3.00;;;5.00;99.90;;;;;;5033499;28;20046;-71
2022/03/19 03:23:59;;;;;;;10.15;2.15;;;5.00;99.90;;;;;;5033125;28;20064;-72
2022/03/19 03:26:25;;;;;;;11.77;2.55;;;5.00;99.90;;;;;;5032744;28;20045;-72
2022/03/19 03:28:51;;;;;;;6.32;2.30;;;5.30;99.90;;;;;;5031991;28;20461;-71
2022/03/19 03:31:17;;;;;;;9.25;2.20;;;5.00;99.90;;;;;;5033356;28;20050;-71
2022/03/19 03:33:43;;;;;;;6.53;1.90;;;4.90;99.90;;;;;;5032716;28;20057;-71
2022/03/19 03:36:09;;;;;;;7.20;2.20;;;4.90;99.90;;;;;;5035959;28;20056;-71
2022/03/19 03:38:35;;;;;;;7.38;2.28;;;5.20;99.90;;;;;;5036446;28;20057;-71
2022/03/19 03:41:01;;;;;;;9.75;3.13;;;5.10;99.90;;;;;;5037405;28;20095;-71
2022/03/19 03:43:27;;;;;;;7.05;2.42;;;5.70;99.90;;;;;;5036950;28;20053;-71
2022/03/19 03:45:53;;;;;;;6.15;2.63;;;4.80;99.90;;;;;;5037293;28;20481;-71
2022/03/19 03:48:18;;;;;;;9.50;2.50;;;4.80;99.90;;;;;;5037308;28;20073;-71
2022/03/19 03:50:45;;;;;;;7.53;2.22;;;4.90;99.90;;;;;;5037548;28;20037;-71
2022/03/19 03:53:11;;;;;;;8.48;2.50;;;4.60;99.90;;;;;;5037283;28;20057;-71
2022/03/19 03:55:38;;;;;;;8.65;2.63;;;4.80;99.90;;;;;;5037471;28;20378;-71
2022/03/19 03:58:04;;;;;;;7.25;2.72;;;5.30;99.90;;;;;;5035141;28;20065;-71
2022/03/19 04:00:31;;;;;;;6.72;3.00;;;4.60;99.90;;;;;;5037086;28;20056;-71
2022/03/19 04:02:58;;;;;;;7.32;2.67;;;5.00;99.90;;;;;;5036238;28;20478;-71
2022/03/19 04:05:23;;;;;;;13.48;2.53;;;4.60;99.90;;;;;;5035916;28;20049;-71
2022/03/19 04:07:50;;;;;;;7.15;2.55;;;4.50;99.90;;;;;;5035925;28;20129;-71
2022/03/19 04:10:17;;;;;;;10.35;3.40;;;4.40;99.90;;;;;;5035855;28;20099;-71
2022/03/19 04:12:43;;;;;;;9.23;3.13;;;4.40;99.90;;;;;;5035726;28;20059;-71
2022/03/19 04:15:10;;;;;;;8.57;2.90;;;5.20;99.90;;;;;;5035321;28;20053;-71
2022/03/19 04:17:36;;;;;;;8.98;3.22;;;5.20;99.90;;;;;;5035829;28;20394;-71
2022/03/19 04:20:06;;;;;;;10.18;3.30;;;4.30;99.90;;;;;;5035844;28;20049;-71
2022/03/19 04:22:42;;;;;;;9.63;3.58;;;4.40;99.90;;;;;;5036687;28;20482;-71
2022/03/19 04:25:23;;;;;;;7.50;3.00;;;4.20;99.90;;;;;;5035937;28;20053;-71
2022/03/19 04:27:55;;;;;;;6.95;3.53;;;4.40;99.90;;;;;;5035742;28;20072;-72
2022/03/19 04:30:24;;;;;;;7.50;3.42;;;4.40;99.90;;;;;;5036611;28;20045;-71
2022/03/19 04:32:58;;;;;;;6.18;3.30;;;4.30;99.90;;;;;;5019005;28;20049;-71
2022/03/19 04:38:14;;;;;;;9.27;4.07;;;4.50;99.90;;;;;;5036358;28;20053;-71
2022/03/19 04:40:41;;;;;;;9.20;4.00;;;4.30;99.90;;;;;;5036379;28;20042;-72
2022/03/19 04:43:08;;;;;;;11.70;3.78;;;4.20;99.90;;;;;;5036225;28;20050;-71
2022/03/19 04:45:35;;;;;;;12.48;3.97;;;4.70;99.90;;;;;;5036045;28;20057;-72
2022/03/19 04:48:01;;;;;;;8.40;3.50;;;4.30;99.90;;;;;;5035106;28;20045;-72
2022/03/19 04:50:27;;;;;;;12.20;4.20;;;4.20;99.90;;;;;;5035216;28;20061;-72
2022/03/19 04:52:54;;;;;;;11.20;4.00;;;4.20;99.90;;;;;;5036109;28;20486;-72
2022/03/19 04:55:20;;;;;;;9.85;4.82;;;4.60;99.90;;;;;;5036065;28;20119;-72
2022/03/19 04:57:47;;;;;;;11.95;4.60;;;4.30;99.90;;;;;;5034203;28;20136;-72
2022/03/19 05:00:13;;;;;;;10.25;4.43;;;4.50;99.90;;;;;;5035968;28;20486;-72
2022/03/19 05:02:39;;;;;;;9.52;3.80;;;4.30;99.90;;;;;;5036256;28;20050;-72
2022/03/19 05:05:05;;;;;;;10.90;4.28;;;4.10;99.90;;;;;;5035932;28;20053;-72
2022/03/19 05:07:35;;;;;;;11.90;4.70;;;4.30;99.90;;;;;;5034809;28;20053;-72
2022/03/19 05:12:51;;;;;;;9.02;4.88;;;4.30;99.90;;;;;;5035491;28;20510;-72
2022/03/19 05:15:16;;;;;;;8.43;4.43;;;3.90;99.90;;;;;;5034522;28;20060;-72
2022/03/19 05:17:44;;;;;;;11.73;4.22;;;4.00;99.90;;;;;;5035686;28;20057;-71
2022/03/19 05:20:11;;;;;;;9.73;4.18;;;4.30;99.90;;;;;;5035963;28;20128;-72
2022/03/19 05:22:37;;;;;;;10.65;5.28;;;4.60;99.90;;;;;;5034814;28;20123;-72
2022/03/19 05:25:04;;;;;;;12.27;5.00;;;4.70;99.90;;;;;;5035902;28;20089;-72
2022/03/19 05:27:30;;;;;;;12.82;4.47;;;4.10;99.90;;;;;;5034465;28;20053;-72
2022/03/19 05:29:56;;;;;;;12.65;5.25;;;4.10;99.90;;;;;;5034531;28;20547;-72
2022/03/19 05:32:22;;;;;;;10.98;4.82;;;4.40;99.90;;;;;;5035434;28;20053;-72
2022/03/19 05:34:49;;;;;;;9.73;4.55;;;4.10;99.90;;;;;;5035657;28;20049;-72
2022/03/19 05:37:16;;;;;;;13.82;5.53;;;4.60;99.90;;;;;;5035513;28;20045;-72
2022/03/19 05:39:43;;;;;;;13.57;5.22;;;4.10;99.90;;;;;;5035261;28;20111;-72
2022/03/19 05:42:11;;;;;;;11.55;4.78;;;5.00;99.90;;;;;;5035142;28;20048;-72
2022/03/19 05:44:37;;;;;;;9.02;5.20;;;4.30;99.90;;;;;;5035091;28;20054;-72
2022/03/19 05:47:03;;;;;;;9.20;5.63;;;4.10;99.90;;;;;;5034325;28;20052;-72
2022/03/19 05:49:29;;;;;;;14.10;5.25;;;4.20;99.90;;;;;;5033802;28;20084;-72
2022/03/19 05:51:57;;;;;;;13.90;6.00;;;4.50;99.90;;;;;;5034633;28;20042;-72
2022/03/19 05:54:24;;;;;;;11.75;5.28;;;4.30;99.90;;;;;;5035804;28;20045;-72
2022/03/19 05:56:51;;;;;;;12.80;5.93;;;4.20;99.90;;;;;;5033969;28;20061;-72
2022/03/19 05:59:19;;;;;;;13.25;5.97;;;4.50;99.90;;;;;;5033744;28;20096;-72
2022/03/19 06:01:44;;;;;;;12.05;5.85;;;4.20;99.90;;;;;;5017681;28;20509;-72
2022/03/19 06:04:10;;;;;;;16.40;5.53;;;4.50;99.90;;;;;;5017316;28;20096;-72
2022/03/19 06:06:36;;;;;;;13.88;5.07;;;4.20;99.90;;;;;;5034799;28;20041;-72
2022/03/19 06:09:03;;;;;;;12.15;5.93;;;4.20;99.90;;;;;;5033471;28;20045;-72
2022/03/19 06:11:29;;;;;;;11.75;5.25;;;4.70;99.90;;;;;;5034557;28;20049;-72
2022/03/19 06:13:54;;;;;;;11.90;5.28;;;4.20;99.90;;;;;;5033342;28;20049;-71
2022/03/19 06:16:20;;;;;;;11.75;5.30;;;4.50;99.90;;;;;;5033494;28;20171;-72
2022/03/19 06:18:50;;;;;;;12.48;4.85;;;4.30;99.90;;;;;;5034686;28;20045;-72
2022/03/19 06:21:16;;;;;;;11.70;4.82;;;4.10;99.90;;;;;;5033467;28;20089;-71
2022/03/19 06:23:42;;;;;;;9.38;4.65;;;4.30;99.90;;;;;;5034118;28;20049;-71
2022/03/19 06:26:07;;;;;;;12.30;5.75;;;5.00;99.90;;;;;;5034747;28;20041;-71
2022/03/19 06:28:33;;;;;;;11.13;4.75;;;4.40;99.90;;;;;;5032501;28;20140;-72
2022/03/19 06:30:59;;;;;;;9.60;4.72;;;4.40;99.90;;;;;;5034167;28;20050;-71
2022/03/19 06:33:24;;;;;;;7.63;4.65;;;4.40;99.90;;;;;;5001052;28;20054;-72
2022/03/19 06:38:34;;;;;;;12.73;4.68;;;4.50;99.90;;;;;;5034277;28;20057;-72
2022/03/19 06:41:00;;;;;;;10.55;4.13;;;4.70;99.90;;;;;;5034094;28;20398;-71
2022/03/19 06:43:26;;;;;;;11.52;4.45;;;4.80;99.90;;;;;;5032996;28;20084;-71
2022/03/19 06:45:57;;;;;;;9.68;4.38;;;4.60;99.90;;;;;;5034002;28;20053;-72
2022/03/19 06:48:23;;;;;;;6.95;3.85;;;4.70;99.90;;;;;;5034111;28;20053;-72
2022/03/19 06:50:50;;;;;;;5.93;3.40;;;4.60;99.90;;;;;;5032638;28;20045;-71
2022/03/19 06:53:16;;;;;;;9.50;4.00;;;4.70;99.90;;;;;;5032380;28;20050;-71
2022/03/19 06:55:42;;;;;;;7.72;3.67;;;5.40;99.90;;;;;;5033631;28;20053;-72
2022/03/19 06:58:07;;;;;;;9.40;3.45;;;5.20;99.90;;;;;;5031717;28;20054;-72
2022/03/19 07:00:35;;;;;;;10.68;4.03;;;4.80;99.90;;;;;;5032726;28;20084;-71
2022/03/19 07:03:01;;;;;;;10.23;3.38;;;4.80;99.90;;;;;;5016189;28;20057;-71
2022/03/19 07:05:28;;;;;;;9.85;3.80;;;4.90;99.90;;;;;;5034248;28;20545;-71
2022/03/19 07:07:55;;;;;;;10.18;3.75;;;4.80;99.90;;;;;;5033347;28;20057;-71
2022/03/19 07:10:21;;;;;;;7.78;2.88;;;4.90;99.90;;;;;;5031848;28;20045;-72
2022/03/19 07:12:49;;;;;;;9.75;3.33;;;5.20;99.90;;;;;;5032271;28;20046;-72
2022/03/19 07:15:16;;;;;;;9.25;3.30;;;5.00;99.90;;;;;;5032464;28;20052;-72
2022/03/19 07:17:43;;;;;;;12.60;3.15;;;5.50;99.90;;;;;;5031954;28;20053;-72
2022/03/19 07:20:14;;;;;;;8.48;3.53;;;5.20;99.90;;;;;;5033517;28;20052;-72
2022/03/19 07:22:58;;;;;;;10.25;3.70;;;5.20;99.90;;;;;;5033957;28;20048;-72
2022/03/19 07:25:28;;;;;;;8.73;3.28;;;5.20;99.90;;;;;;5033160;28;20045;-71
2022/03/19 07:27:57;;;;;;;10.15;3.03;;;5.30;99.90;;;;;;5032999;28;20494;-72
2022/03/19 07:30:23;;;;;;;8.52;3.33;;;5.40;99.90;;;;;;5032230;28;20048;-72
2022/03/19 07:32:49;;;;;;;6.32;2.80;;;6.10;99.90;;;;;;5032236;28;20049;-71
2022/03/19 07:35:15;;;;;;;8.10;3.28;;;5.50;99.90;;;;;;5033392;28;20102;-71
2022/03/19 07:37:42;;;;;;;9.68;3.35;;;5.50;99.90;;;;;;5032415;28;20504;-71
2022/03/19 07:40:10;;;;;;;14.52;3.50;;;5.70;99.90;;;;;;5033481;28;20045;-71
2022/03/19 07:42:37;;;;;;;11.27;2.90;;;5.60;99.90;;;;;;5033499;28;20046;-72
2022/03/19 07:45:04;;;;;;;7.22;2.70;;;5.80;99.90;;;;;;5033458;28;20053;-71
2022/03/19 07:47:30;;;;;;;8.25;3.25;;;5.60;99.90;;;;;;5032943;28;20130;-71
2022/03/19 07:49:56;;;;;;;6.65;2.60;;;6.20;99.90;;;;;;5033740;28;20048;-72
2022/03/19 07:52:22;;;;;;;9.50;3.05;;;5.70;99.90;;;;;;5016009;28;20463;-71
2022/03/19 07:54:48;;;;;;;9.75;3.10;;;5.90;99.90;;;;;;5033027;28;20061;-72
2022/03/19 07:57:14;;;;;;;9.02;3.03;;;5.90;99.90;;;;;;5032664;28;20061;-71
2022/03/19 07:59:40;;;;;;;8.07;2.83;;;5.90;99.90;;;;;;5015880;28;20053;-72
2022/03/19 08:02:06;;;;;;;12.18;3.20;;;6.10;99.90;;;;;;5032854;28;20107;-71
2022/03/19 08:04:32;;;;;;;8.00;2.97;;;6.00;99.90;;;;;;5031808;28;20045;-72
2022/03/19 08:06:57;;;;;;;7.90;3.08;;;5.80;99.90;;;;;;5033081;28;20100;-72
2022/03/19 08:09:24;;;;;;;13.57;3.50;;;6.10;99.90;;;;;;5033064;28;20050;-71
2022/03/19 08:11:51;;;;;;;8.05;2.83;;;6.20;99.90;;;;;;5031720;28;20426;-71
2022/03/19 08:14:19;;;;;;;4.57;2.10;;;6.40;99.90;;;;;;5033583;28;20371;-71
2022/03/19 08:16:48;;;;;;;6.90;2.05;;;6.40;99.90;;;;;;5033048;28;20128;-71
2022/03/19 08:19:15;;;;;;;12.15;3.17;;;6.40;99.90;;;;;;5032057;28;20171;-71
2022/03/19 08:21:45;;;;;;;8.43;2.38;;;6.50;99.90;;;;;;5035368;28;20084;-71
2022/03/19 08:24:14;;;;;;;10.52;2.60;;;6.50;99.90;;;;;;5037055;28;20058;-71
2022/03/19 08:26:40;;;;;;;6.75;2.60;;;6.60;99.90;;;;;;5036584;28;20048;-71
2022/03/19 08:29:06;;;;;;;11.70;2.60;;;6.70;99.90;;;;;;5035997;28;20049;-71
2022/03/19 08:31:32;;;;;;;10.55;2.92;;;6.80;99.90;;;;;;5035077;28;20045;-71
2022/03/19 08:33:58;;;;;;;8.10;2.40;;;6.80;99.90;;;;;;5036406;28;20049;-71
2022/03/19 08:36:24;;;;;;;7.93;2.40;;;6.90;99.90;;;;;;5035471;28;20053;-72
2022/03/19 08:41:35;;;;;;;9.38;2.72;;;7.00;99.90;;;;;;5035633;28;20512;-72
2022/03/19 08:44:01;;;;;;;11.90;2.25;;;6.90;99.90;;;;;;5036368;28;20095;-72
2022/03/19 08:46:27;;;;;;;8.98;2.67;;;7.30;99.90;;;;;;5035766;28;20060;-72
2022/03/19 08:48:53;;;;;;;9.25;2.70;;;7.10;99.90;;;;;;5035694;28;20389;-72
2022/03/19 08:54:03;;;;;;;5.85;2.05;;;7.40;99.90;;;;;;5035975;28;20512;-72
2022/03/19 08:56:30;;;;;;;8.68;2.67;;;7.30;99.90;;;;;;5036043;28;20053;-69
2022/03/19 08:58:56;;;;;;;7.63;2.25;;;7.30;99.90;;;;;;5035580;28;20142;-71
2022/03/19 09:01:22;;;;;;;8.68;2.20;;;7.60;99.90;;;;;;5036051;28;20088;-72
2022/03/19 09:03:48;;;;;;;9.23;2.53;;;7.60;99.90;;;;;;5036110;28;20049;-72
2022/03/19 09:06:14;;;;;;;5.35;2.30;;;7.60;99.90;;;;;;5036268;28;20060;-71
2022/03/19 09:08:44;;;;;;;10.70;2.80;;;7.60;99.90;;;;;;5035965;28;20156;-71
2022/03/19 09:11:11;;;;;;;8.57;2.08;;;7.60;99.90;;;;;;5035884;28;20052;-72
2022/03/19 09:13:37;;;;;;;14.82;2.80;;;7.70;99.90;;;;;;5035756;28;20434;-71
2022/03/19 09:16:07;;;;;;;9.20;2.50;;;7.90;99.90;;;;;;5035902;28;20168;-71
2022/03/19 09:18:33;;;;;;;13.02;3.47;;;7.70;99.90;;;;;;5034779;28;20481;-69
2022/03/19 09:20:58;;;;;;;12.52;2.53;;;7.80;99.90;;;;;;5035675;28;20052;-70
2022/03/19 09:23:24;;;;;;;10.00;2.00;;;8.00;99.90;;;;;;5035716;28;20045;-70
2022/03/19 09:25:51;;;;;;;10.73;2.80;;;7.90;99.90;;;;;;5035369;28;20517;-73
2022/03/19 09:28:17;;;;;;;8.15;1.90;;;8.00;99.90;;;;;;5035290;28;20143;-71
2022/03/19 09:30:43;;;;;;;11.32;1.75;;;7.90;99.90;;;;;;5018025;28;20084;-69
2022/03/19 09:33:09;;;;;;;7.05;1.75;;;7.90;99.90;;;;;;5034664;28;20045;-74
2022/03/19 09:35:35;;;;;;;5.00;1.55;;;8.00;99.90;;;;;;5035289;28;20375;-70
2022/03/19 09:38:04;;;;;;;7.10;1.55;;;8.10;99.90;;;;;;5035477;28;20059;-70
2022/03/19 09:40:30;;;;;;;8.55;1.33;;;8.10;99.90;;;;;;5034572;28;20045;-71
2022/03/19 09:42:57;;;;;;;13.13;2.45;;;8.20;99.90;;;;;;5035725;28;20107;-70
2022/03/19 09:45:24;;;;;;;6.20;1.27;;;8.20;99.90;;;;;;5035322;28;20052;-71
2022/03/19 09:47:51;;;;;;;6.68;1.65;;;8.20;99.90;;;;;;5034598;28;20450;-71
2022/03/19 09:50:17;;;;;;;5.45;1.20;;;8.30;99.90;;;;;;5035178;28;20053;-70
2022/03/19 09:52:44;;;;;;;5.90;1.33;;;8.30;99.90;;;;;;5031845;28;20431;-83
2022/03/19 09:55:15;;;;;;;7.40;1.48;;;8.40;99.90;;;;;;5006898;28;20128;-73
2022/03/19 09:57:41;;;;;;;4.43;1.10;;;8.50;99.90;;;;;;5024904;28;20572;-72
2022/03/19 10:00:08;;;;;;;7.05;1.15;;;8.60;99.90;;;;;;5024387;28;20045;-71
2022/03/19 10:02:33;;;;;;;3.88;1.25;;;8.50;99.90;;;;;;5023644;28;20092;-74
2022/03/19 10:08:35;;;;;;;3.92;0.93;;;8.60;99.90;;;;;;5025558;28;20072;-73
2022/03/19 10:10:35;;;;;;;5.07;1.17;;;8.70;99.90;;;;;;5025848;28;20088;-72
2022/03/19 10:13:09;;;;;;;4.25;1.27;;;8.80;99.90;;;;;;5025806;28;20073;-73
2022/03/19 10:15:42;;;;;;;4.72;1.23;;;8.90;99.90;;;;;;5023307;28;20445;-74
2022/03/19 10:18:10;;;;;;;5.60;1.58;;;8.80;99.90;;;;;;5023435;28;20519;-74
2022/03/19 10:20:39;;;;;;;3.83;1.00;;;8.80;99.90;;;;;;5022066;28;20112;-73
2022/03/19 10:23:05;;;;;;;3.75;1.23;;;8.90;99.90;;;;;;5006924;28;20064;-73
2022/03/19 10:25:31;;;;;;;5.10;1.00;;;9.10;99.90;;;;;;5024781;28;20487;-72
2022/03/19 10:28:01;;;;;;;5.75;1.40;;;8.90;99.90;;;;;;5021070;28;20041;-78
2022/03/19 10:30:38;;;;;;;6.20;1.00;;;9.00;99.90;;;;;;5024602;28;20126;-76
2022/03/19 10:33:07;;;;;;;4.95;1.35;;;9.10;99.90;;;;;;5018672;28;20541;-74
2022/03/19 10:35:35;;;;;;;3.15;1.23;;;9.10;99.90;;;;;;5021809;28;20140;-76
2022/03/19 10:38:23;;;;;;;6.40;1.55;;;9.20;99.90;;;;;;5024891;28;20057;-75
2022/03/19 10:40:51;;;;;;;3.58;0.80;;;9.20;99.90;;;;;;5026109;28;20142;-76
2022/03/19 10:43:19;;;;;;;3.60;0.98;;;9.30;99.90;;;;;;5031814;28;20056;-75
2022/03/19 10:45:50;;;;;;;3.85;1.20;;;9.50;99.90;;;;;;5030275;28;20067;-75
2022/03/19 10:48:24;;;;;;;3.72;0.85;;;9.40;99.90;;;;;;5036648;28;20049;-76
2022/03/19 10:50:51;;;;;;;2.63;1.10;;;9.50;99.90;;;;;;5010546;28;20100;-74
2022/03/19 10:53:18;;;;;;;2.35;0.70;;;9.50;99.90;;;;;;5023804;28;20041;-74
2022/03/19 10:55:44;;;;;;;3.28;0.80;;;9.60;99.90;;;;;;5026304;28;20071;-75
2022/03/19 10:58:11;;;;;;;4.95;0.93;;;9.60;99.90;;;;;;5023181;28;20508;-75
2022/03/19 11:00:37;;;;;;;3.90;0.95;;;9.70;99.90;;;;;;5022329;28;20049;-75
2022/03/19 11:03:34;;;;;;;4.40;1.00;;;9.80;99.40;;;;;;5025795;28;20363;-75
2022/03/19 11:06:04;;;;;;;2.38;0.70;;;9.90;99.90;;;;;;5008335;28;20046;-72
2022/03/19 11:08:38;;;;;;;3.25;0.70;;;9.90;99.00;;;;;;5026099;28;20132;-75
2022/03/19 11:11:28;;;;;;;3.15;0.77;;;10.00;98.00;;;;;;5022979;28;20055;-71
2022/03/19 11:13:57;;;;;;;5.25;0.77;;;10.00;98.00;;;;;;5023202;28;20084;-73
2022/03/19 11:16:26;;;;;;;2.55;0.65;;;10.20;97.80;;;;;;5023236;28;20064;-72
2022/03/19 11:18:52;;;;;;;3.78;0.75;;;10.30;97.70;;;;;;5025645;28;20041;-73
2022/03/19 11:21:19;;;;;;;2.15;0.68;;;10.10;97.70;;;;;;5022492;28;20357;-70
2022/03/19 11:23:53;;;;;;;2.03;0.77;;;10.20;96.60;;;;;;5025648;28;20046;-71
2022/03/19 11:26:24;;;;;;;3.58;0.60;;;10.20;95.20;;;;;;5022209;28;20038;-71
2022/03/19 11:28:50;;;;;;;2.47;0.60;;;10.30;93.90;;;;;;5021823;28;20049;-73
2022/03/19 11:31:29;;;;;;;2.47;0.68;;;10.30;93.50;;;;;;5023434;28;20404;-70
2022/03/19 11:33:59;;;;;;;3.00;0.60;;;10.30;93.60;;;;;;5022641;28;20420;-71
2022/03/19 11:36:25;;;;;;;1.88;0.70;;;11.10;93.90;;;;;;5022265;28;20576;-72
2022/03/19 11:38:52;;;;;;;2.38;0.60;;;10.40;93.60;;;;;;5025940;28;20058;-71
2022/03/19 11:41:23;;;;;;;2.92;0.52;;;10.40;92.60;;;;;;5023563;28;20042;-71
2022/03/19 11:43:50;;;;;;;1.65;0.57;;;10.50;91.80;;;;;;5021984;28;20052;-72
2022/03/19 11:46:17;;;;;;;2.72;0.60;;;10.50;91.90;;;;;;5023071;28;20328;-72
2022/03/19 11:48:48;;;;;;;2.10;0.82;;;10.60;92.30;;;;;;5024289;28;20045;-72
2022/03/19 11:51:26;;;;;;;2.65;0.52;;;10.60;92.10;;;;;;5024795;28;20049;-71
2022/03/19 11:53:58;;;;;;;2.05;0.63;;;10.60;92.00;;;;;;5023474;28;20052;-74
2022/03/19 11:56:44;;;;;;;2.42;0.60;;;10.70;92.30;;;;;;5027042;28;20084;-72
2022/03/19 11:59:31;;;;;;;1.92;0.50;;;10.70;92.30;;;;;;5027994;28;20068;-74
2022/03/19 12:02:05;;;;;;;2.25;0.63;;;10.70;91.80;;;;;;5030414;28;20053;-73
2022/03/19 12:04:45;;;;;;;2.33;0.70;;;10.80;91.40;;;;;;5024468;28;20068;-73
2022/03/19 12:07:12;;;;;;;2.28;0.60;;;10.80;91.50;;;;;;5021067;28;20052;-73
2022/03/19 12:09:41;;;;;;;1.92;0.80;;;10.80;91.10;;;;;;5025822;28;20045;-72
2022/03/19 12:12:16;;;;;;;1.48;0.60;;;10.90;91.30;;;;;;5026244;28;20478;-71
2022/03/19 12:14:45;;;;;;;3.95;0.70;;;10.90;91.20;;;;;;5025445;28;20502;-71
2022/03/19 12:17:40;;;;;;;2.50;0.60;;;11.00;90.60;;;;;;5026065;28;20482;-72
2022/03/19 12:20:09;;;;;;;6.63;0.60;;;10.90;90.80;;;;;;5012909;28;20052;-72
2022/03/19 12:22:42;;;;;;;2.15;0.68;;;11.00;90.50;;;;;;5023566;28;20053;-71
2022/03/19 12:25:16;;;;;;;1.75;0.70;;;11.10;89.50;;;;;;5027475;28;20041;-66
2022/03/19 12:27:56;;;;;;;2.10;0.60;;;11.00;89.10;;;;;;5028386;28;20046;-71
2022/03/19 12:30:25;;;;;;;2.55;0.60;;;11.10;88.40;;;;;;5035496;28;20052;-71
2022/03/19 12:32:55;;;;;;;1.15;0.40;;;11.10;88.90;;;;;;5034724;28;20124;-72
2022/03/19 12:35:47;;;;;;;1.75;0.50;;;11.10;86.40;;;;;;5018988;28;20049;-71
2022/03/19 12:38:32;;;;;;;2.78;0.80;;;11.10;85.40;;;;;;5027613;28;20141;-71
2022/03/19 12:43:43;;;;;;;3.50;0.70;;;11.20;85.80;;;;;;5036518;28;20071;-71
2022/03/19 12:46:09;;;;;;;2.40;0.60;;;11.20;85.00;;;;;;5036491;28;20489;-71
2022/03/19 12:48:39;;;;;;;3.65;0.70;;;11.20;83.30;;;;;;5036419;28;20116;-71
2022/03/19 12:51:05;;;;;;;2.50;0.70;;;11.30;82.20;;;;;;5036371;28;20053;-71
2022/03/19 12:53:37;;;;;;;3.08;0.70;;;11.30;82.10;;;;;;5036494;28;20120;-70
2022/03/19 12:56:14;;;;;;;6.75;0.80;;;11.30;81.40;;;;;;5036230;28;20092;-71
2022/03/19 12:58:43;;;;;;;3.20;0.88;;;11.30;83.00;;;;;;5036114;28;20057;-71
2022/03/19 13:01:13;;;;;;;2.85;0.60;;;11.30;82.00;;;;;;5036567;28;20037;-71
2022/03/19 13:03:41;;;;;;;2.25;0.60;;;11.40;82.10;;;;;;5036180;28;20393;-71
2022/03/19 13:06:08;;;;;;;1.80;0.60;;;11.50;81.90;;;;;;5036053;28;20054;-71
2022/03/19 13:09:03;;;;;;;3.38;0.80;;;11.50;81.80;;;;;;5035127;28;20480;-71
2022/03/19 13:11:50;;;;;;;3.67;0.90;;;11.50;81.80;;;;;;5019144;28;20052;-70
2022/03/19 13:14:18;;;;;;;3.80;0.80;;;11.50;81.60;;;;;;5036317;28;20045;-71
2022/03/19 13:16:50;;;;;;;4.15;1.00;;;11.50;82.30;;;;;;5035925;28;20077;-71
2022/03/19 13:19:17;;;;;;;4.78;0.80;;;11.60;82.70;;;;;;5035911;28;20128;-71
2022/03/19 13:21:45;;;;;;;2.60;0.77;;;11.60;83.00;;;;;;5034900;28;20375;-71